createdAt,value
2018-09-03T00:01:49.000Z,30
2018-09-03T00:03:49.000Z,30
2018-09-03T00:05:49.000Z,30
2018-09-03T00:07:49.000Z,29.9
2018-09-03T00:08:49.000Z,29.9
2018-09-03T00:10:34.000Z,29.9
2018-09-03T00:11:49.000Z,29.9
2018-09-03T00:13:34.000Z,29.4
2018-09-03T00:14:49.000Z,29.8
2018-09-03T00:15:49.000Z,29.8
2018-09-03T00:16:49.000Z,29.9
2018-09-03T00:18:49.000Z,29.9
2018-09-03T00:19:49.000Z,29.9
2018-09-03T00:21:49.000Z,30
2018-09-03T00:22:49.000Z,30
2018-09-03T00:24:49.000Z,30
2018-09-03T00:26:49.000Z,30
2018-09-03T00:28:49.000Z,30
2018-09-03T00:30:49.000Z,29.9
2018-09-03T00:31:49.000Z,29.9
2018-09-03T00:32:49.000Z,30
2018-09-03T00:34:49.000Z,30
2018-09-03T00:35:49.000Z,30
2018-09-03T00:37:49.000Z,30
2018-09-03T00:38:49.000Z,30.1
2018-09-03T00:40:49.000Z,30.1
2018-09-03T00:42:49.000Z,30
2018-09-03T00:44:49.000Z,29.9
2018-09-03T00:45:49.000Z,29.9
2018-09-03T00:47:49.000Z,29.9
2018-09-03T00:49:49.000Z,29.9
2018-09-03T00:50:49.000Z,29.8
2018-09-03T00:51:49.000Z,29.9
2018-09-03T00:53:49.000Z,29.9
2018-09-03T00:55:49.000Z,29.9
2018-09-03T00:57:49.000Z,29.8
2018-09-03T00:59:49.000Z,29.8
2018-09-03T01:01:49.000Z,29.8
2018-09-03T01:03:49.000Z,29.8
2018-09-03T01:04:49.000Z,29.8
2018-09-03T01:05:49.000Z,29.9
2018-09-03T01:06:49.000Z,29.9
2018-09-03T01:08:49.000Z,30
2018-09-03T01:09:49.000Z,30
2018-09-03T01:11:49.000Z,30
2018-09-03T01:12:49.000Z,30
2018-09-03T01:14:34.000Z,29.8
2018-09-03T01:15:50.000Z,29.9
2018-09-03T01:17:50.000Z,29.9
2018-09-03T01:19:50.000Z,29.9
2018-09-03T01:20:50.000Z,29.9
2018-09-03T01:22:50.000Z,29.9
2018-09-03T01:24:50.000Z,29.9
2018-09-03T01:26:50.000Z,29.8
2018-09-03T01:27:50.000Z,29.8
2018-09-03T01:28:50.000Z,29.8
2018-09-03T01:30:35.000Z,29.9
2018-09-03T01:31:50.000Z,29.9
2018-09-03T01:33:50.000Z,29.9
2018-09-03T01:35:50.000Z,29.8
2018-09-03T01:36:50.000Z,29.8
2018-09-03T01:38:50.000Z,29.9
2018-09-03T01:39:50.000Z,29.9
2018-09-03T01:41:50.000Z,29.9
2018-09-03T01:43:50.000Z,29.9
2018-09-03T01:45:50.000Z,29.9
2018-09-03T01:47:50.000Z,29.8
2018-09-03T01:49:50.000Z,29.8
2018-09-03T01:50:50.000Z,29.7
2018-09-03T01:51:50.000Z,29.8
2018-09-03T01:53:50.000Z,29.9
2018-09-03T01:55:50.000Z,29.8
2018-09-03T01:56:50.000Z,29.8
2018-09-03T01:58:50.000Z,29.7
2018-09-03T02:00:50.000Z,29.7
2018-09-03T02:02:50.000Z,29.7
2018-09-03T02:04:50.000Z,29.7
2018-09-03T02:05:50.000Z,29.7
2018-09-03T02:07:50.000Z,29.8
2018-09-03T02:09:50.000Z,29.8
2018-09-03T02:11:50.000Z,29.7
2018-09-03T02:13:50.000Z,29.6
2018-09-03T02:14:50.000Z,29.7
2018-09-03T02:16:50.000Z,29.7
2018-09-03T02:18:50.000Z,29.7
2018-09-03T02:20:50.000Z,29.6
2018-09-03T02:22:34.000Z,29.6
2018-09-03T02:23:50.000Z,29.6
2018-09-03T02:24:50.000Z,29.6
2018-09-03T02:26:50.000Z,29.7
2018-09-03T02:28:50.000Z,29.7
2018-09-03T02:30:50.000Z,29.6
2018-09-03T02:31:50.000Z,29.7
2018-09-03T02:33:50.000Z,29.7
2018-09-03T02:34:50.000Z,29.7
2018-09-03T02:35:50.000Z,29.7
2018-09-03T02:37:50.000Z,29.7
2018-09-03T02:38:50.000Z,29.8
2018-09-03T02:39:50.000Z,29.8
2018-09-03T02:41:50.000Z,29.9
2018-09-03T02:43:50.000Z,29.9
2018-09-03T02:44:50.000Z,29.9
2018-09-03T02:45:50.000Z,29.9
2018-09-03T02:46:50.000Z,29.9
2018-09-03T02:48:50.000Z,29.9
2018-09-03T02:49:50.000Z,29.9
2018-09-03T02:50:50.000Z,30
2018-09-03T02:52:50.000Z,30
2018-09-03T02:54:35.000Z,29.9
2018-09-03T02:55:50.000Z,29.9
2018-09-03T02:57:50.000Z,29.9
2018-09-03T02:58:50.000Z,29.9
2018-09-03T02:59:50.000Z,29.9
2018-09-03T03:01:50.000Z,29.9
2018-09-03T03:02:50.000Z,29.9
2018-09-03T03:04:34.000Z,29.9
2018-09-03T03:05:50.000Z,29.9
2018-09-03T03:07:50.000Z,29.9
2018-09-03T03:08:50.000Z,29.8
2018-09-03T03:09:50.000Z,29.8
2018-09-03T03:11:50.000Z,29.8
2018-09-03T03:13:50.000Z,29.7
2018-09-03T03:15:50.000Z,29.7
2018-09-03T03:17:50.000Z,29.7
2018-09-03T03:19:50.000Z,29.7
2018-09-03T03:21:50.000Z,29.7
2018-09-03T03:23:50.000Z,29.6
2018-09-03T03:25:50.000Z,29.5
2018-09-03T03:26:50.000Z,29.5
2018-09-03T03:28:50.000Z,29.5
2018-09-03T03:30:50.000Z,29.5
2018-09-03T03:32:50.000Z,29.5
2018-09-03T03:34:50.000Z,29.5
2018-09-03T03:36:50.000Z,29.5
2018-09-03T03:37:50.000Z,29.5
2018-09-03T03:38:50.000Z,29.5
2018-09-03T03:40:50.000Z,29.6
2018-09-03T03:41:50.000Z,29.7
2018-09-03T03:43:50.000Z,29.8
2018-09-03T03:44:50.000Z,29.8
2018-09-03T03:46:50.000Z,29.8
2018-09-03T03:47:50.000Z,29.8
2018-09-03T03:49:50.000Z,29.8
2018-09-03T03:51:50.000Z,29.8
2018-09-03T03:53:50.000Z,29.7
2018-09-03T03:55:50.000Z,29.7
2018-09-03T03:56:50.000Z,29.7
2018-09-03T03:58:50.000Z,29.8
2018-09-03T03:59:50.000Z,29.8
2018-09-03T04:01:50.000Z,29.8
2018-09-03T04:02:50.000Z,29.8
2018-09-03T04:03:50.000Z,29.8
2018-09-03T04:04:50.000Z,29.9
2018-09-03T04:05:50.000Z,29.9
2018-09-03T04:06:50.000Z,29.9
2018-09-03T04:08:50.000Z,29.9
2018-09-03T04:10:50.000Z,29.8
2018-09-03T04:11:50.000Z,29.7
2018-09-03T04:13:50.000Z,29.7
2018-09-03T04:14:50.000Z,29.7
2018-09-03T04:15:50.000Z,29.8
2018-09-03T04:17:50.000Z,29.8
2018-09-03T04:18:50.000Z,29.8
2018-09-03T04:20:50.000Z,29.9
2018-09-03T04:21:50.000Z,29.9
2018-09-03T04:22:50.000Z,29.9
2018-09-03T04:24:50.000Z,29.8
2018-09-03T04:26:34.000Z,29.5
2018-09-03T04:27:49.000Z,29.3
2018-09-03T04:28:49.000Z,29.2
2018-09-03T04:30:49.000Z,28.9
2018-09-03T04:31:49.000Z,28.8
2018-09-03T04:33:49.000Z,28.5
2018-09-03T04:35:49.000Z,28.2
2018-09-03T04:37:49.000Z,28
2018-09-03T04:38:49.000Z,28
2018-09-03T04:39:49.000Z,28
2018-09-03T04:41:49.000Z,28
2018-09-03T04:43:49.000Z,28
2018-09-03T04:45:34.000Z,28
2018-09-03T04:46:49.000Z,27.9
2018-09-03T04:48:49.000Z,27.9
2018-09-03T04:50:49.000Z,27.8
2018-09-03T04:52:49.000Z,27.7
2018-09-03T04:54:49.000Z,27.7
2018-09-03T04:56:49.000Z,27.7
2018-09-03T04:58:49.000Z,27.7
2018-09-03T04:59:49.000Z,27.7
2018-09-03T05:01:49.000Z,27.7
2018-09-03T05:03:49.000Z,27.7
2018-09-03T05:04:49.000Z,27.6
2018-09-03T05:06:49.000Z,27.6
2018-09-03T05:07:49.000Z,27.6
2018-09-03T05:08:49.000Z,27.7
2018-09-03T05:10:49.000Z,27.7
2018-09-03T05:11:49.000Z,27.7
2018-09-03T05:13:49.000Z,27.7
2018-09-03T05:15:49.000Z,27.6
2018-09-03T05:17:49.000Z,27.5
2018-09-03T05:18:49.000Z,27.5
2018-09-03T05:20:49.000Z,27.5
2018-09-03T05:21:49.000Z,27.5
2018-09-03T05:23:49.000Z,27.7
2018-09-03T05:25:49.000Z,27.8
2018-09-03T05:26:49.000Z,27.9
2018-09-03T05:27:49.000Z,28
2018-09-03T05:29:49.000Z,28.2
2018-09-03T05:30:49.000Z,28.3
2018-09-03T05:32:49.000Z,28.5
2018-09-03T05:34:34.000Z,28.5
2018-09-03T05:35:49.000Z,28.6
2018-09-03T05:37:34.000Z,28.6
2018-09-03T05:38:49.000Z,28.6
2018-09-03T05:40:49.000Z,28.6
2018-09-03T05:41:49.000Z,28.6
2018-09-03T05:43:49.000Z,28.7
2018-09-03T05:45:49.000Z,28.8
2018-09-03T05:47:49.000Z,28.8
2018-09-03T05:49:49.000Z,28.8
2018-09-03T05:50:49.000Z,28.9
2018-09-03T05:51:49.000Z,28.9
2018-09-03T05:53:49.000Z,29
2018-09-03T05:55:49.000Z,29.1
2018-09-03T05:57:49.000Z,29
2018-09-03T05:59:49.000Z,29
2018-09-03T06:01:49.000Z,29
2018-09-03T06:03:49.000Z,29
2018-09-03T06:05:49.000Z,29
2018-09-03T06:07:49.000Z,29
2018-09-03T06:09:34.000Z,29.1
2018-09-03T06:10:49.000Z,29
2018-09-03T06:12:49.000Z,29.1
2018-09-03T06:13:49.000Z,29.1
2018-09-03T06:15:49.000Z,29.2
2018-09-03T06:16:49.000Z,29.2
2018-09-03T06:18:49.000Z,29.3
2018-09-03T06:19:49.000Z,29.3
2018-09-03T06:21:49.000Z,29.3
2018-09-03T06:23:49.000Z,29.3
2018-09-03T06:24:49.000Z,29.3
2018-09-03T06:25:49.000Z,29.4
2018-09-03T06:27:34.000Z,29.5
2018-09-03T06:28:49.000Z,29.5
2018-09-03T06:29:49.000Z,29.5
2018-09-03T06:30:49.000Z,29.6
2018-09-03T06:32:49.000Z,29.7
2018-09-03T06:34:49.000Z,29.8
2018-09-03T06:35:49.000Z,29.8
2018-09-03T06:37:49.000Z,29.9
2018-09-03T06:39:49.000Z,29.8
2018-09-03T06:40:49.000Z,29.8
2018-09-03T06:42:49.000Z,29.7
2018-09-03T06:44:49.000Z,29.6
2018-09-03T06:46:34.000Z,29.1
2018-09-03T06:47:49.000Z,29.6
2018-09-03T06:48:49.000Z,29.7
2018-09-03T06:50:49.000Z,29.8
2018-09-03T06:52:49.000Z,29.9
2018-09-03T06:54:34.000Z,29.9
2018-09-03T06:55:49.000Z,29.9
2018-09-03T06:57:49.000Z,29.9
2018-09-03T06:59:49.000Z,29.9
2018-09-03T07:01:49.000Z,29.8
2018-09-03T07:02:49.000Z,29.8
2018-09-03T07:04:49.000Z,29.9
2018-09-03T07:05:49.000Z,29.9
2018-09-03T07:07:49.000Z,29.9
2018-09-03T07:09:49.000Z,30
2018-09-03T07:11:49.000Z,30
2018-09-03T07:13:49.000Z,30
2018-09-03T07:15:49.000Z,29.9
2018-09-03T07:16:49.000Z,29.9
2018-09-03T07:17:49.000Z,30
2018-09-03T07:18:49.000Z,30
2018-09-03T07:19:49.000Z,30
2018-09-03T07:21:49.000Z,30
2018-09-03T07:23:49.000Z,29.9
2018-09-03T07:25:34.000Z,29.9
2018-09-03T07:26:49.000Z,29.8
2018-09-03T07:28:49.000Z,29.9
2018-09-03T07:30:49.000Z,29.9
2018-09-03T07:32:49.000Z,29.9
2018-09-03T07:33:49.000Z,29.9
2018-09-03T07:34:49.000Z,29.9
2018-09-03T07:36:49.000Z,30
2018-09-03T07:38:50.000Z,30
2018-09-03T07:40:50.000Z,30
2018-09-03T07:42:35.000Z,30.1
2018-09-03T07:43:50.000Z,30.1
2018-09-03T07:44:50.000Z,30.1
2018-09-03T07:46:50.000Z,30.2
2018-09-03T07:48:50.000Z,30.3
2018-09-03T07:50:50.000Z,30.4
2018-09-03T07:51:50.000Z,30.4
2018-09-03T07:53:50.000Z,30.5
2018-09-03T07:55:50.000Z,30.5
2018-09-03T07:56:50.000Z,30.5
2018-09-03T07:58:50.000Z,30.5
2018-09-03T07:59:50.000Z,30.6
2018-09-03T08:00:50.000Z,30.6
2018-09-03T08:02:50.000Z,30.6
2018-09-03T08:03:50.000Z,30.6
2018-09-03T08:05:35.000Z,30.7
2018-09-03T08:06:50.000Z,30.7
2018-09-03T08:08:50.000Z,30.7
2018-09-03T08:09:50.000Z,30.8
2018-09-03T08:11:50.000Z,30.8
2018-09-03T08:13:50.000Z,30.8
2018-09-03T08:14:50.000Z,30.8
2018-09-03T08:16:35.000Z,30.8
2018-09-03T08:17:50.000Z,30.8
2018-09-03T08:19:50.000Z,30.8
2018-09-03T08:21:35.000Z,30.9
2018-09-03T08:22:50.000Z,30.8
2018-09-03T08:23:50.000Z,30.9
2018-09-03T08:24:50.000Z,30.9
2018-09-03T08:25:50.000Z,31
2018-09-03T08:27:50.000Z,31.1
2018-09-03T08:28:50.000Z,31.1
2018-09-03T08:30:35.000Z,31.1
2018-09-03T08:31:50.000Z,31.1
2018-09-03T08:33:50.000Z,31
2018-09-03T08:34:50.000Z,31
2018-09-03T08:36:50.000Z,31
2018-09-03T08:37:50.000Z,31
2018-09-03T08:38:50.000Z,31
2018-09-03T08:40:50.000Z,31.1
2018-09-03T08:41:50.000Z,31.1
2018-09-03T08:43:50.000Z,31.1
2018-09-03T08:45:50.000Z,31.1
2018-09-03T08:47:50.000Z,31
2018-09-03T08:49:34.000Z,31
2018-09-03T08:50:50.000Z,31
2018-09-03T08:51:50.000Z,31.1
2018-09-03T08:53:50.000Z,31.2
2018-09-03T08:55:50.000Z,31.2
2018-09-03T08:57:50.000Z,31.2
2018-09-03T08:58:50.000Z,31.2
2018-09-03T09:00:34.000Z,31.3
2018-09-03T09:01:50.000Z,31.3
2018-09-03T09:03:50.000Z,31.3
2018-09-03T09:05:50.000Z,31.4
2018-09-03T09:06:50.000Z,31.4
2018-09-03T09:08:50.000Z,31.5
2018-09-03T09:10:50.000Z,31.6
2018-09-03T09:12:50.000Z,31.6
2018-09-03T09:14:50.000Z,31.7
2018-09-03T09:16:50.000Z,31.7
2018-09-03T09:17:50.000Z,31.7
2018-09-03T09:18:50.000Z,31.8
2018-09-03T09:19:50.000Z,31.9
2018-09-03T09:21:50.000Z,32
2018-09-03T09:22:50.000Z,32
2018-09-03T09:23:50.000Z,32.1
2018-09-03T09:24:50.000Z,32.2
2018-09-03T09:26:49.000Z,32.3
2018-09-03T09:27:50.000Z,32.3
2018-09-03T09:28:50.000Z,32.3
2018-09-03T09:30:50.000Z,32.3
2018-09-03T09:31:50.000Z,32.2
2018-09-03T09:33:50.000Z,32.1
2018-09-03T09:35:50.000Z,32
2018-09-03T09:37:50.000Z,31.9
2018-09-03T09:38:50.000Z,31.9
2018-09-03T09:39:50.000Z,31.9
2018-09-03T09:41:35.000Z,32
2018-09-03T09:42:50.000Z,32
2018-09-03T09:44:50.000Z,31.9
2018-09-03T09:46:49.000Z,32
2018-09-03T09:48:49.000Z,32
2018-09-03T09:49:49.000Z,32
2018-09-03T09:50:49.000Z,32.1
2018-09-03T09:52:49.000Z,32.1
2018-09-03T09:53:49.000Z,32.2
2018-09-03T09:54:49.000Z,32.2
2018-09-03T09:56:49.000Z,32.2
2018-09-03T09:57:49.000Z,32.3
2018-09-03T09:59:34.000Z,32.3
2018-09-03T10:00:49.000Z,32.3
2018-09-03T10:02:34.000Z,32.5
2018-09-03T10:03:49.000Z,32.5
2018-09-03T10:05:49.000Z,32.7
2018-09-03T10:07:49.000Z,32.7
2018-09-03T10:09:49.000Z,32.8
2018-09-03T10:10:49.000Z,32.8
2018-09-03T10:11:49.000Z,32.8
2018-09-03T10:13:49.000Z,32.8
2018-09-03T10:14:49.000Z,32.8
2018-09-03T10:15:49.000Z,32.8
2018-09-03T10:17:49.000Z,32.7
2018-09-03T10:19:49.000Z,32.7
2018-09-03T10:21:49.000Z,32.6
2018-09-03T10:23:49.000Z,32.6
2018-09-03T10:24:49.000Z,32.6
2018-09-03T10:26:49.000Z,32.5
2018-09-03T10:27:49.000Z,32.5
2018-09-03T10:29:49.000Z,32.5
2018-09-03T10:30:49.000Z,32.5
2018-09-03T10:31:49.000Z,32.6
2018-09-03T10:33:49.000Z,32.5
2018-09-03T10:35:49.000Z,32.4
2018-09-03T10:37:49.000Z,32.5
2018-09-03T10:38:49.000Z,32.5
2018-09-03T10:40:49.000Z,32.8
2018-09-03T10:41:49.000Z,32.9
2018-09-03T10:42:49.000Z,33.1
2018-09-03T10:44:49.000Z,33.2
2018-09-03T10:45:49.000Z,33.2
2018-09-03T10:47:49.000Z,33.2
2018-09-03T10:48:49.000Z,33.2
2018-09-03T10:50:34.000Z,33.3
2018-09-03T10:51:50.000Z,33.3
2018-09-03T10:52:50.000Z,33.3
2018-09-03T10:53:50.000Z,33.4
2018-09-03T10:55:50.000Z,33.5
2018-09-03T10:56:50.000Z,33.5
2018-09-03T10:58:50.000Z,33.3
2018-09-03T11:00:34.000Z,33.3
2018-09-03T11:01:50.000Z,33.3
2018-09-03T11:03:50.000Z,33.4
2018-09-03T11:04:50.000Z,33.5
2018-09-03T11:06:35.000Z,33.2
2018-09-03T11:07:50.000Z,33.6
2018-09-03T11:09:50.000Z,33.5
2018-09-03T11:10:50.000Z,33.5
2018-09-03T11:12:34.000Z,33.6
2018-09-03T11:13:50.000Z,33.7
2018-09-03T11:14:50.000Z,33.7
2018-09-03T11:15:50.000Z,33.8
2018-09-03T11:17:35.000Z,33.3
2018-09-03T11:18:50.000Z,33.8
2018-09-03T11:20:50.000Z,34
2018-09-03T11:21:50.000Z,34
2018-09-03T11:22:50.000Z,34.2
2018-09-03T11:24:50.000Z,34.6
2018-09-03T11:25:50.000Z,34.8
2018-09-03T11:26:50.000Z,34.9
2018-09-03T11:28:50.000Z,34.8
2018-09-03T11:29:50.000Z,34.7
2018-09-03T11:31:50.000Z,34.4
2018-09-03T11:33:50.000Z,34.2
2018-09-03T11:34:50.000Z,34.2
2018-09-03T11:36:50.000Z,34.2
2018-09-03T11:38:50.000Z,34.1
2018-09-03T11:39:50.000Z,34.1
2018-09-03T11:41:50.000Z,34
2018-09-03T11:44:50.000Z,33.6
2018-09-03T11:45:50.000Z,33.5
2018-09-03T11:47:50.000Z,33.1
2018-09-03T11:49:50.000Z,32.8
2018-09-03T11:50:50.000Z,32.8
2018-09-03T11:52:50.000Z,32.7
2018-09-03T11:53:50.000Z,32.7
2018-09-03T11:54:50.000Z,32.6
2018-09-03T11:56:50.000Z,32.5
2018-09-03T11:57:50.000Z,32.4
2018-09-03T11:58:50.000Z,32.3
2018-09-03T12:00:50.000Z,32.4
2018-09-03T12:02:50.000Z,32.5
2018-09-03T12:04:50.000Z,32.5
2018-09-03T12:06:50.000Z,32.4
2018-09-03T12:08:50.000Z,32.3
2018-09-03T12:09:50.000Z,32.3
2018-09-03T12:11:50.000Z,32.3
2018-09-03T12:13:50.000Z,32.2
2018-09-03T12:15:50.000Z,32.2
2018-09-03T12:16:50.000Z,32.1
2018-09-03T12:17:50.000Z,32.1
2018-09-03T12:18:50.000Z,32.1
2018-09-03T12:20:50.000Z,32
2018-09-03T12:22:50.000Z,32.1
2018-09-03T12:23:50.000Z,32.1
2018-09-03T12:25:50.000Z,32.3
2018-09-03T12:27:50.000Z,32.2
2018-09-03T12:29:35.000Z,32.2
2018-09-03T12:30:50.000Z,32.1
2018-09-03T12:32:50.000Z,32.2
2018-09-03T12:34:50.000Z,32.1
2018-09-03T12:35:50.000Z,32
2018-09-03T12:37:50.000Z,32.1
2018-09-03T12:38:50.000Z,32.1
2018-09-03T12:39:50.000Z,32.1
2018-09-03T12:41:50.000Z,32
2018-09-03T12:42:50.000Z,32.1
2018-09-03T12:44:35.000Z,32.1
2018-09-03T12:45:50.000Z,32.1
2018-09-03T12:46:50.000Z,32.1
2018-09-03T12:48:50.000Z,32.1
2018-09-03T12:49:50.000Z,32.2
2018-09-03T12:51:50.000Z,32.1
2018-09-03T12:52:50.000Z,32.1
2018-09-03T12:54:50.000Z,32.1
2018-09-03T12:55:50.000Z,32
2018-09-03T12:56:50.000Z,32.1
2018-09-03T12:58:50.000Z,32.1
2018-09-03T12:59:50.000Z,32.1
2018-09-03T13:01:50.000Z,32.1
2018-09-03T13:03:50.000Z,32.1
2018-09-03T13:04:50.000Z,32.1
2018-09-03T13:06:50.000Z,32.1
2018-09-03T13:08:50.000Z,32.2
2018-09-03T13:10:50.000Z,32.1
2018-09-03T13:11:50.000Z,32
2018-09-03T13:12:50.000Z,31.9
2018-09-03T13:14:50.000Z,31.8
2018-09-03T13:16:50.000Z,31.6
2018-09-03T13:18:50.000Z,31.5
2018-09-03T13:20:50.000Z,31.4
2018-09-03T13:22:50.000Z,31.3
2018-09-03T13:24:50.000Z,31.2
2018-09-03T13:26:34.000Z,31.2
2018-09-03T13:27:50.000Z,31.1
2018-09-03T13:29:50.000Z,31.1
2018-09-03T13:31:50.000Z,31.1
2018-09-03T13:33:50.000Z,31.1
2018-09-03T13:34:50.000Z,31.1
2018-09-03T13:36:50.000Z,31.2
2018-09-03T13:37:50.000Z,31.2
2018-09-03T13:39:34.000Z,31.2
2018-09-03T13:40:50.000Z,31.2
2018-09-03T13:42:50.000Z,31.3
2018-09-03T13:43:50.000Z,31.3
2018-09-03T13:45:50.000Z,31.3
2018-09-03T13:46:50.000Z,31.3
2018-09-03T13:48:50.000Z,31.3
2018-09-03T13:49:50.000Z,31.3
2018-09-03T13:51:50.000Z,31.3
2018-09-03T13:52:50.000Z,31.4
2018-09-03T13:54:50.000Z,31.4
2018-09-03T13:55:50.000Z,31.4
2018-09-03T13:57:50.000Z,31.3
2018-09-03T13:58:50.000Z,31.3
2018-09-03T13:59:50.000Z,31.3
2018-09-03T14:01:49.000Z,31.2
2018-09-03T14:03:49.000Z,31.1
2018-09-03T14:05:49.000Z,31
2018-09-03T14:06:49.000Z,31
2018-09-03T14:08:49.000Z,31
2018-09-03T14:09:49.000Z,31.1
2018-09-03T14:10:49.000Z,31.1
2018-09-03T14:11:49.000Z,31.1
2018-09-03T14:13:49.000Z,31.1
2018-09-03T14:15:49.000Z,30.9
2018-09-03T14:17:49.000Z,30.9
2018-09-03T14:19:49.000Z,30.9
2018-09-03T14:21:49.000Z,30.8
2018-09-03T14:22:49.000Z,30.8
2018-09-03T14:23:49.000Z,30.8
2018-09-03T14:25:49.000Z,30.8
2018-09-03T14:27:49.000Z,30.7
2018-09-03T14:28:49.000Z,30.7
2018-09-03T14:29:49.000Z,30.7
2018-09-03T14:30:49.000Z,30.8
2018-09-03T14:32:49.000Z,30.9
2018-09-03T14:34:49.000Z,30.9
2018-09-03T14:36:49.000Z,30.9
2018-09-03T14:37:49.000Z,30.9
2018-09-03T14:39:49.000Z,30.9
2018-09-03T14:41:49.000Z,30.9
2018-09-03T14:42:49.000Z,30.9
2018-09-03T14:44:49.000Z,30.8
2018-09-03T14:46:49.000Z,30.8
2018-09-03T14:48:49.000Z,30.8
2018-09-03T14:50:49.000Z,30.8
2018-09-03T14:51:49.000Z,30.8
2018-09-03T14:52:49.000Z,30.8
2018-09-03T14:53:49.000Z,30.9
2018-09-03T14:55:49.000Z,30.9
2018-09-03T14:57:49.000Z,30.9
2018-09-03T14:58:49.000Z,30.9
2018-09-03T15:00:49.000Z,30.8
2018-09-03T15:01:49.000Z,30.8
2018-09-03T15:03:49.000Z,30.9
2018-09-03T15:04:49.000Z,30.9
2018-09-03T15:06:49.000Z,31
2018-09-03T15:08:49.000Z,31
2018-09-03T15:10:49.000Z,31
2018-09-03T15:11:49.000Z,30.9
2018-09-03T15:12:49.000Z,30.9
2018-09-03T15:14:49.000Z,30.9
2018-09-03T15:16:49.000Z,30.8
2018-09-03T15:18:49.000Z,30.7
2018-09-03T15:19:49.000Z,30.7
2018-09-03T15:21:49.000Z,30.7
2018-09-03T15:22:49.000Z,30.6
2018-09-03T15:24:49.000Z,30.6
2018-09-03T15:25:49.000Z,30.5
2018-09-03T15:26:49.000Z,30.6
2018-09-03T15:27:49.000Z,30.6
2018-09-03T15:29:49.000Z,30.7
2018-09-03T15:31:34.000Z,30.7
2018-09-03T15:32:49.000Z,30.6
2018-09-03T15:33:49.000Z,30.6
2018-09-03T15:35:34.000Z,30.6
2018-09-03T15:36:49.000Z,30.5
2018-09-03T15:38:34.000Z,30.5
2018-09-03T15:39:49.000Z,30.5
2018-09-03T15:40:49.000Z,30.5
2018-09-03T15:42:49.000Z,30.5
2018-09-03T15:43:49.000Z,30.5
2018-09-03T15:44:49.000Z,30.6
2018-09-03T15:46:49.000Z,30.6
2018-09-03T15:47:49.000Z,30.7
2018-09-03T15:49:49.000Z,30.7
2018-09-03T15:50:49.000Z,30.7
2018-09-03T15:51:49.000Z,30.7
2018-09-03T15:53:49.000Z,30.7
2018-09-03T15:55:34.000Z,30.7
2018-09-03T15:56:49.000Z,30.7
2018-09-03T15:57:49.000Z,30.7
2018-09-03T15:59:49.000Z,30.7
2018-09-03T16:01:49.000Z,30.7
2018-09-03T16:02:49.000Z,30.8
2018-09-03T16:04:49.000Z,31
2018-09-03T16:06:49.000Z,31.1
2018-09-03T16:07:49.000Z,31.1
2018-09-03T16:09:49.000Z,31.3
2018-09-03T16:10:49.000Z,31.3
2018-09-03T16:12:49.000Z,31.4
2018-09-03T16:14:49.000Z,31.4
2018-09-03T16:15:49.000Z,31.4
2018-09-03T16:16:49.000Z,31.5
2018-09-03T16:18:49.000Z,31.5
2018-09-03T16:19:49.000Z,31.5
2018-09-03T16:20:49.000Z,31.5
2018-09-03T16:21:49.000Z,31.6
2018-09-03T16:22:49.000Z,31.6
2018-09-03T16:24:49.000Z,31.7
2018-09-03T16:26:49.000Z,31.7
2018-09-03T16:28:49.000Z,31.6
2018-09-03T16:29:49.000Z,31.6
2018-09-03T16:31:49.000Z,31.7
2018-09-03T16:33:49.000Z,31.6
2018-09-03T16:35:34.000Z,31.6
2018-09-03T16:36:49.000Z,31.5
2018-09-03T16:38:49.000Z,31.5
2018-09-03T16:40:49.000Z,31.5
2018-09-03T16:41:49.000Z,31.4
2018-09-03T16:43:49.000Z,31.4
2018-09-03T16:45:49.000Z,31.4
2018-09-03T16:47:49.000Z,31.3
2018-09-03T16:48:49.000Z,31.3
2018-09-03T16:49:49.000Z,31.3
2018-09-03T16:51:49.000Z,31.3
2018-09-03T16:53:49.000Z,31.3
2018-09-03T16:54:49.000Z,31.4
2018-09-03T16:55:49.000Z,31.4
2018-09-03T16:57:34.000Z,31.4
2018-09-03T16:58:49.000Z,31.4
2018-09-03T17:00:49.000Z,31.4
2018-09-03T17:02:49.000Z,31.4
2018-09-03T17:04:49.000Z,31.3
2018-09-03T17:05:49.000Z,31.3
2018-09-03T17:06:49.000Z,31.3
2018-09-03T17:08:49.000Z,31.4
2018-09-03T17:09:49.000Z,31.4
2018-09-03T17:11:49.000Z,31.5
2018-09-03T17:13:49.000Z,31.5
2018-09-03T17:15:49.000Z,31.4
2018-09-03T17:16:49.000Z,31.4
2018-09-03T17:17:49.000Z,31.5
2018-09-03T17:19:49.000Z,31.5
2018-09-03T17:20:49.000Z,31.5
2018-09-03T17:22:49.000Z,31.5
2018-09-03T17:23:49.000Z,31.5
2018-09-03T17:25:49.000Z,31.4
2018-09-03T17:26:49.000Z,31.4
2018-09-03T17:27:49.000Z,31.5
2018-09-03T17:29:49.000Z,31.5
2018-09-03T17:30:49.000Z,31.5
2018-09-03T17:32:34.000Z,31.5
2018-09-03T17:33:49.000Z,31.5
2018-09-03T17:35:49.000Z,31.5
2018-09-03T17:37:49.000Z,31.4
2018-09-03T17:39:49.000Z,31.2
2018-09-03T17:40:49.000Z,31.2
2018-09-03T17:42:49.000Z,31.3
2018-09-03T17:43:49.000Z,31.3
2018-09-03T17:44:49.000Z,31.4
2018-09-03T17:46:49.000Z,31.4
2018-09-03T17:48:49.000Z,31.4
2018-09-03T17:49:49.000Z,31.4
2018-09-03T17:50:49.000Z,31.4
2018-09-03T17:51:49.000Z,31.5
2018-09-03T17:53:49.000Z,31.5
2018-09-03T17:54:49.000Z,31.5
2018-09-03T17:56:49.000Z,31.5
2018-09-03T17:57:49.000Z,31.5
2018-09-03T17:58:49.000Z,31.6
2018-09-03T17:59:49.000Z,31.6
2018-09-03T18:00:49.000Z,31.6
2018-09-03T18:02:34.000Z,31.6
2018-09-03T18:03:49.000Z,31.5
2018-09-03T18:05:49.000Z,31.4
2018-09-03T18:07:49.000Z,31.3
2018-09-03T18:08:49.000Z,31.3
2018-09-03T18:09:49.000Z,31.4
2018-09-03T18:11:49.000Z,31.4
2018-09-03T18:12:49.000Z,31.4
2018-09-03T18:13:49.000Z,31.4
2018-09-03T18:15:49.000Z,31.5
2018-09-03T18:17:34.000Z,31.5
2018-09-03T18:18:49.000Z,31.4
2018-09-03T18:20:49.000Z,31.3
2018-09-03T18:22:49.000Z,31.2
2018-09-03T18:24:49.000Z,31.1
2018-09-03T18:25:49.000Z,31.1
2018-09-03T18:27:49.000Z,31
2018-09-03T18:28:49.000Z,31
2018-09-03T18:30:34.000Z,31.1
2018-09-03T18:31:49.000Z,31.1
2018-09-03T18:33:49.000Z,31.1
2018-09-03T18:35:49.000Z,31
2018-09-03T18:37:49.000Z,31
2018-09-03T18:39:49.000Z,31
2018-09-03T18:40:49.000Z,31
2018-09-03T18:41:49.000Z,31.1
2018-09-03T18:43:49.000Z,31.1
2018-09-03T18:45:49.000Z,31.1
2018-09-03T18:47:34.000Z,31.1
2018-09-03T18:48:49.000Z,31
2018-09-03T18:50:49.000Z,31
2018-09-03T18:52:49.000Z,31
2018-09-03T18:54:49.000Z,30.9
2018-09-03T18:55:49.000Z,30.9
2018-09-03T18:57:49.000Z,30.9
2018-09-03T18:59:49.000Z,30.9
2018-09-03T19:01:49.000Z,30.9
2018-09-03T19:03:49.000Z,30.9
2018-09-03T19:05:34.000Z,30.9
2018-09-03T19:06:49.000Z,30.9
2018-09-03T19:07:49.000Z,30.9
2018-09-03T19:09:49.000Z,31
2018-09-03T19:10:49.000Z,31
2018-09-03T19:11:49.000Z,31.1
2018-09-03T19:13:49.000Z,31.1
2018-09-03T19:15:49.000Z,31
2018-09-03T19:16:49.000Z,31
2018-09-03T19:18:49.000Z,31.1
2018-09-03T19:20:49.000Z,31.1
2018-09-03T19:22:49.000Z,31.1
2018-09-03T19:23:49.000Z,31.1
2018-09-03T19:25:49.000Z,31
2018-09-03T19:27:49.000Z,31
2018-09-03T19:28:49.000Z,31
2018-09-03T19:30:49.000Z,31.1
2018-09-03T19:32:49.000Z,31
2018-09-03T19:34:49.000Z,31
2018-09-03T19:35:49.000Z,31
2018-09-03T19:37:49.000Z,31
2018-09-03T19:38:49.000Z,31.1
2018-09-03T19:39:49.000Z,31.1
2018-09-03T19:40:49.000Z,31.1
2018-09-03T19:42:49.000Z,31.1
2018-09-03T19:44:49.000Z,31.1
2018-09-03T19:46:34.000Z,31.1
2018-09-03T19:47:49.000Z,31
2018-09-03T19:48:49.000Z,31
2018-09-03T19:49:49.000Z,31.1
2018-09-03T19:50:49.000Z,31.1
2018-09-03T19:52:49.000Z,31.1
2018-09-03T19:53:49.000Z,31.1
2018-09-03T19:55:49.000Z,31.1
2018-09-03T19:57:34.000Z,31.1
2018-09-03T19:58:49.000Z,31.1
2018-09-03T19:59:49.000Z,31.1
2018-09-03T20:01:49.000Z,31.1
2018-09-03T20:03:49.000Z,31
2018-09-03T20:05:34.000Z,31
2018-09-03T20:06:49.000Z,30.9
2018-09-03T20:08:49.000Z,31
2018-09-03T20:10:49.000Z,30.9
2018-09-03T20:12:49.000Z,30.9
2018-09-03T20:14:49.000Z,30.9
2018-09-03T20:16:49.000Z,30.8
2018-09-03T20:18:49.000Z,30.8
2018-09-03T20:19:49.000Z,30.9
2018-09-03T20:21:49.000Z,30.9
2018-09-03T20:23:50.000Z,30.9
2018-09-03T20:25:50.000Z,30.9
2018-09-03T20:26:50.000Z,30.9
2018-09-03T20:28:50.000Z,30.9
2018-09-03T20:29:50.000Z,31
2018-09-03T20:31:50.000Z,31
2018-09-03T20:32:50.000Z,31.1
2018-09-03T20:34:50.000Z,31.1
2018-09-03T20:36:50.000Z,31
2018-09-03T20:37:50.000Z,31
2018-09-03T20:39:50.000Z,31
2018-09-03T20:41:50.000Z,30.9
2018-09-03T20:42:50.000Z,30.9
2018-09-03T20:43:50.000Z,31
2018-09-03T20:45:50.000Z,31
2018-09-03T20:46:50.000Z,31.1
2018-09-03T20:48:50.000Z,31.1
2018-09-03T20:49:50.000Z,31.1
2018-09-03T20:51:50.000Z,31.1
2018-09-03T20:53:50.000Z,31
2018-09-03T20:55:50.000Z,30.9
2018-09-03T20:57:50.000Z,30.9
2018-09-03T20:58:50.000Z,30.9
2018-09-03T21:00:50.000Z,30.9
2018-09-03T21:02:50.000Z,30.9
2018-09-03T21:03:50.000Z,31
2018-09-03T21:04:50.000Z,31
2018-09-03T21:06:50.000Z,31
2018-09-03T21:08:50.000Z,31